createdAt,value
2018-12-18T00:02:10.877Z,6.88
2018-12-18T00:04:40.938Z,6.86
2018-12-18T00:07:09.997Z,6.88
2018-12-18T00:09:39.152Z,6.89
2018-12-18T00:12:08.281Z,6.87
2018-12-18T00:14:37.381Z,6.87
2018-12-18T00:17:06.521Z,6.90
2018-12-18T00:19:35.597Z,6.88
2018-12-18T00:22:05.001Z,6.90
2018-12-18T00:24:34.085Z,6.88
2018-12-18T00:27:03.191Z,6.90
2018-12-18T00:29:32.281Z,6.92
2018-12-18T00:32:01.357Z,6.93
2018-12-18T00:34:30.485Z,6.94
2018-12-18T00:36:59.550Z,6.93
2018-12-18T00:39:28.497Z,6.94
2018-12-18T00:42:00.637Z,6.94
2018-12-18T00:44:29.618Z,6.91
2018-12-18T00:46:58.582Z,6.90
2018-12-18T00:49:27.554Z,6.89
2018-12-18T00:51:56.617Z,6.91
2018-12-18T00:54:25.641Z,6.90
2018-12-18T00:56:54.680Z,6.90
2018-12-18T00:59:23.782Z,6.95
2018-12-18T01:01:57.917Z,6.97
2018-12-18T01:04:26.935Z,6.97
2018-12-18T01:06:58.766Z,6.95
2018-12-18T01:09:27.914Z,6.93
2018-12-18T01:11:56.980Z,6.91
2018-12-18T01:14:26.162Z,6.92
2018-12-18T01:16:55.290Z,6.95
2018-12-18T01:19:24.259Z,6.96
2018-12-18T01:21:55.660Z,6.93
2018-12-18T01:24:24.645Z,6.89
2018-12-18T01:26:53.661Z,6.84
2018-12-18T01:29:22.709Z,6.88
2018-12-18T01:31:51.703Z,6.87
2018-12-18T01:34:21.342Z,6.87
2018-12-18T01:36:50.437Z,6.90
2018-12-18T01:39:19.654Z,6.90
2018-12-18T01:41:50.005Z,6.90
2018-12-18T01:44:19.757Z,6.90
2018-12-18T01:46:49.875Z,6.96
2018-12-18T01:49:18.788Z,6.89
2018-12-18T01:51:47.929Z,6.86
2018-12-18T01:54:17.301Z,6.81
2018-12-18T01:56:46.314Z,6.80
2018-12-18T01:59:15.234Z,6.79
2018-12-18T02:01:44.256Z,6.84
2018-12-18T02:04:13.227Z,6.89
2018-12-18T02:06:42.327Z,6.89
2018-12-18T02:09:11.987Z,6.85
2018-12-18T02:11:41.050Z,6.85
2018-12-18T02:14:10.148Z,6.90
2018-12-18T02:16:39.063Z,6.85
2018-12-18T02:19:07.972Z,6.83
2018-12-18T02:21:36.983Z,6.86
2018-12-18T02:24:05.981Z,6.88
2018-12-18T02:26:34.977Z,6.84
2018-12-18T02:29:03.932Z,6.82
2018-12-18T02:31:32.977Z,6.86
2018-12-18T02:34:01.982Z,6.85
2018-12-18T02:36:31.037Z,6.86
2018-12-18T02:39:00.015Z,6.85
2018-12-18T02:41:28.918Z,6.86
2018-12-18T02:43:57.925Z,6.89
2018-12-18T02:46:27.071Z,6.89
2018-12-18T02:48:56.166Z,6.89
2018-12-18T02:51:25.258Z,6.88
2018-12-18T02:53:54.214Z,6.87
2018-12-18T02:56:23.156Z,6.85
2018-12-18T02:58:52.077Z,6.84
2018-12-18T03:01:21.081Z,6.83
2018-12-18T03:03:50.052Z,6.84
2018-12-18T03:06:19.101Z,6.87
2018-12-18T03:08:48.023Z,6.83
2018-12-18T03:11:20.937Z,6.82
2018-12-18T03:13:50.374Z,6.80
2018-12-18T03:16:19.522Z,6.80
2018-12-18T03:18:48.565Z,6.85
2018-12-18T03:21:18.127Z,6.81
2018-12-18T03:24:30.300Z,6.85
2018-12-18T03:27:16.531Z,6.78
2018-12-18T03:29:46.006Z,6.82
2018-12-18T03:32:19.591Z,6.79
2018-12-18T03:34:48.766Z,6.77
2018-12-18T03:37:17.852Z,6.80
2018-12-18T03:39:47.123Z,6.78
2018-12-18T03:42:16.170Z,6.81
2018-12-18T03:44:45.264Z,6.83
2018-12-18T03:47:18.201Z,6.81
2018-12-18T03:49:47.116Z,6.76
2018-12-18T03:52:16.061Z,6.76
2018-12-18T03:54:45.073Z,6.68
2018-12-18T04:00:37.030Z,6.56
2018-12-18T04:03:05.994Z,6.53
2018-12-18T04:05:35.069Z,6.60
2018-12-18T04:08:04.345Z,6.61
2018-12-18T04:10:33.402Z,6.65
2018-12-18T04:13:02.526Z,6.64
2018-12-18T04:15:31.689Z,6.62
2018-12-18T04:18:00.568Z,6.65
2018-12-18T04:20:29.473Z,6.67
2018-12-18T04:22:59.589Z,6.69
2018-12-18T04:25:28.625Z,6.70
2018-12-18T04:27:57.528Z,6.68
2018-12-18T04:30:26.642Z,6.68
2018-12-18T04:32:55.736Z,6.70
2018-12-18T04:35:24.658Z,6.69
2018-12-18T04:37:53.777Z,6.66
2018-12-18T04:40:22.773Z,6.62
2018-12-18T04:42:51.878Z,6.63
2018-12-18T04:45:21.026Z,6.60
2018-12-18T04:47:53.369Z,6.64
2018-12-18T04:50:22.390Z,6.58
2018-12-18T04:52:51.427Z,6.57
2018-12-18T04:55:20.539Z,6.51
2018-12-18T04:57:49.524Z,6.52
2018-12-18T05:00:18.411Z,6.56
2018-12-18T05:02:47.502Z,6.60
2018-12-18T05:05:16.409Z,6.55
2018-12-18T05:07:45.461Z,6.50
2018-12-18T05:10:14.482Z,6.46
2018-12-18T05:12:43.455Z,6.49
2018-12-18T05:15:12.527Z,6.52
2018-12-18T05:17:41.539Z,6.47
2018-12-18T05:20:10.621Z,6.44
2018-12-18T05:22:39.824Z,6.43
2018-12-18T05:25:08.897Z,6.38
2018-12-18T05:27:38.068Z,6.41
2018-12-18T05:30:07.889Z,6.44
2018-12-18T05:32:37.109Z,6.42
2018-12-18T05:35:06.079Z,6.38
2018-12-18T05:37:35.003Z,6.38
2018-12-18T05:40:04.297Z,6.40
2018-12-18T05:42:33.463Z,6.44
2018-12-18T05:45:02.433Z,6.44
2018-12-18T05:47:31.557Z,6.48
2018-12-18T05:50:00.618Z,6.45
2018-12-18T05:52:29.767Z,6.42
2018-12-18T05:54:58.742Z,6.43
2018-12-18T05:57:27.827Z,6.44
2018-12-18T05:59:56.798Z,6.44
2018-12-18T06:02:25.978Z,6.46
2018-12-18T06:04:55.022Z,6.46
2018-12-18T06:07:24.189Z,6.45
2018-12-18T06:09:53.184Z,6.46
2018-12-18T06:12:22.206Z,6.49
2018-12-18T06:14:51.445Z,6.51
2018-12-18T06:17:20.516Z,6.51
2018-12-18T06:19:49.681Z,6.56
2018-12-18T06:22:18.597Z,6.57
2018-12-18T06:24:47.640Z,6.54
2018-12-18T06:27:16.637Z,6.55
2018-12-18T06:29:45.717Z,6.56
2018-12-18T06:32:14.789Z,6.55
2018-12-18T06:34:43.944Z,6.55
2018-12-18T06:37:12.994Z,6.56
2018-12-18T06:39:41.997Z,6.56
2018-12-18T06:42:10.975Z,6.57
2018-12-18T06:44:40.066Z,6.55
2018-12-18T06:47:09.141Z,6.56
2018-12-18T06:50:26.148Z,6.51
2018-12-18T06:53:42.942Z,6.47
2018-12-18T06:56:27.457Z,6.40
2018-12-18T06:59:30.301Z,6.32
2018-12-18T07:02:02.333Z,6.24
2018-12-18T07:04:35.292Z,6.21
2018-12-18T07:07:04.256Z,6.19
2018-12-18T07:09:33.294Z,6.17
2018-12-18T07:12:02.416Z,6.17
2018-12-18T07:14:31.841Z,6.17
2018-12-18T07:17:00.897Z,6.13
2018-12-18T07:19:29.944Z,6.09
2018-12-18T07:21:59.025Z,6.06
2018-12-18T07:24:28.117Z,6.06
2018-12-18T07:26:57.162Z,6.06
2018-12-18T07:29:26.301Z,6.03
2018-12-18T07:31:55.294Z,6.03
2018-12-18T07:34:24.385Z,6.02
2018-12-18T07:37:00.660Z,6.05
2018-12-18T07:39:29.689Z,6.04
2018-12-18T07:42:02.028Z,6.05
2018-12-18T07:44:44.332Z,6.07
2018-12-18T07:47:16.637Z,6.03
2018-12-18T07:49:45.707Z,6.01
2018-12-18T07:52:14.907Z,5.97
2018-12-18T07:54:43.929Z,5.89
2018-12-18T07:57:12.926Z,5.77
2018-12-18T07:59:42.446Z,5.58
2018-12-18T08:02:13.697Z,5.35
2018-12-18T08:04:42.695Z,5.11
2018-12-18T08:07:11.701Z,4.95
2018-12-18T08:09:40.766Z,4.80
2018-12-18T08:12:09.921Z,4.72
2018-12-18T08:14:39.041Z,4.66
2018-12-18T08:17:08.083Z,4.63
2018-12-18T08:19:37.110Z,4.64
2018-12-18T08:22:06.786Z,4.67
2018-12-18T08:24:50.847Z,4.69
2018-12-18T08:27:23.049Z,4.67
2018-12-18T08:29:52.161Z,4.66
2018-12-18T08:32:30.694Z,4.69
2018-12-18T08:35:07.630Z,4.69
2018-12-18T08:37:40.058Z,4.72
2018-12-18T08:40:09.483Z,4.73
2018-12-18T08:42:55.781Z,4.76
2018-12-18T08:45:28.077Z,4.77
2018-12-18T08:48:01.506Z,4.82
2018-12-18T08:50:33.893Z,4.85
2018-12-18T08:53:07.060Z,4.87
2018-12-18T08:55:43.889Z,4.89
2018-12-18T08:58:20.426Z,4.91
2018-12-18T09:00:53.558Z,4.93
2018-12-18T09:03:24.661Z,4.99
2018-12-18T09:06:00.830Z,5.06
2018-12-18T09:11:01.188Z,5.17
2018-12-18T09:13:34.684Z,5.20
2018-12-18T09:16:17.001Z,5.23
2018-12-18T09:18:49.469Z,5.28
2018-12-18T09:21:22.498Z,5.37
2018-12-18T09:23:55.649Z,5.44
2018-12-18T09:26:28.403Z,5.47
2018-12-18T09:29:05.441Z,5.51
2018-12-18T09:31:38.169Z,5.53
2018-12-18T09:34:12.218Z,5.57
2018-12-18T09:36:45.205Z,5.64
2018-12-18T09:39:26.309Z,5.73
2018-12-18T09:42:03.420Z,5.77
2018-12-18T09:44:37.417Z,5.79
2018-12-18T09:47:09.680Z,5.85
2018-12-18T09:49:42.694Z,5.90
2018-12-18T09:52:15.704Z,5.96
2018-12-18T09:54:48.697Z,6.01
2018-12-18T09:57:30.293Z,6.05
2018-12-18T10:00:08.015Z,6.06
2018-12-18T10:02:40.750Z,6.07
2018-12-18T10:05:13.883Z,6.04
2018-12-18T10:07:50.841Z,6.07
2018-12-18T10:10:27.755Z,6.12
2018-12-18T10:13:00.681Z,6.25
2018-12-18T10:15:37.557Z,6.36
2018-12-18T10:18:10.574Z,6.45
2018-12-18T10:20:46.723Z,6.53
2018-12-18T10:23:19.816Z,6.60
2018-12-18T10:25:52.616Z,6.65
2018-12-18T10:28:25.581Z,6.71
2018-12-18T10:31:02.317Z,6.79
2018-12-18T10:33:40.817Z,6.86
2018-12-18T10:36:17.150Z,6.90
2018-12-18T10:38:48.045Z,6.95
2018-12-18T10:41:20.082Z,6.96
2018-12-18T10:43:54.285Z,7.00
2018-12-18T10:46:30.996Z,7.07
2018-12-18T10:49:03.925Z,7.13
2018-12-18T10:51:36.277Z,7.14
2018-12-18T10:54:13.125Z,7.15
2018-12-18T10:56:45.837Z,7.15
2018-12-18T10:59:18.994Z,7.19
2018-12-18T11:01:51.884Z,7.23
2018-12-18T11:04:26.093Z,7.28
2018-12-18T11:06:58.975Z,7.38
2018-12-18T11:09:31.238Z,7.45
2018-12-18T11:12:08.132Z,7.51
2018-12-18T11:14:41.029Z,7.51
2018-12-18T11:17:14.040Z,7.61
2018-12-18T11:19:47.009Z,7.68
2018-12-18T11:22:23.152Z,7.72
2018-12-18T11:24:56.325Z,7.69
2018-12-18T11:27:33.266Z,7.65
2018-12-18T11:30:10.313Z,7.70
2018-12-18T11:32:43.081Z,7.83
2018-12-18T11:35:19.493Z,7.94
2018-12-18T11:37:50.174Z,8.01
2018-12-18T11:40:27.287Z,8.09
2018-12-18T11:42:59.945Z,8.10
2018-12-18T11:45:38.161Z,8.13
2018-12-18T11:48:15.241Z,8.22
2018-12-18T11:50:48.269Z,8.37
2018-12-18T11:53:21.094Z,8.51
2018-12-18T11:55:54.259Z,8.54
2018-12-18T11:58:30.973Z,8.68
2018-12-18T12:01:03.413Z,8.77
2018-12-18T12:03:40.248Z,8.85
2018-12-18T12:06:13.319Z,8.98
2018-12-18T12:08:50.217Z,9.06
2018-12-18T12:11:26.461Z,9.03
2018-12-18T12:14:05.441Z,9.05
2018-12-18T12:16:38.458Z,9.04
2018-12-18T12:19:15.199Z,9.17
2018-12-18T12:21:47.521Z,9.26
2018-12-18T12:24:20.554Z,9.32
2018-12-18T12:27:02.685Z,9.34
2018-12-18T12:29:35.781Z,9.44
2018-12-18T12:32:08.566Z,9.53
2018-12-18T12:34:42.472Z,9.54
2018-12-18T12:37:15.647Z,9.55
2018-12-18T12:39:48.402Z,9.54
2018-12-18T12:42:21.363Z,9.62
2018-12-18T12:44:58.377Z,9.59
2018-12-18T12:47:35.188Z,9.52
2018-12-18T12:50:12.035Z,9.51
2018-12-18T12:52:44.513Z,9.51
2018-12-18T12:55:17.659Z,9.48
2018-12-18T12:57:50.724Z,9.45
2018-12-18T13:00:26.947Z,9.48
2018-12-18T13:03:03.901Z,9.34
2018-12-18T13:05:37.156Z,9.28
2018-12-18T13:08:10.450Z,9.23
2018-12-18T13:10:43.207Z,9.15
2018-12-18T13:13:16.290Z,9.06
2018-12-18T13:15:48.466Z,9.04
2018-12-18T13:18:20.786Z,9.09
2018-12-18T13:20:53.666Z,8.99
2018-12-18T13:23:26.688Z,8.99
2018-12-18T13:26:00.810Z,9.01
2018-12-18T13:28:33.870Z,9.05
2018-12-18T13:31:06.900Z,9.06
2018-12-18T13:33:43.077Z,9.07
2018-12-18T13:36:16.245Z,9.08
2018-12-18T13:38:49.045Z,9.10
2018-12-18T13:41:19.953Z,9.12
2018-12-18T13:43:52.817Z,9.12
2018-12-18T13:46:25.801Z,9.07
2018-12-18T13:48:58.776Z,9.07
2018-12-18T13:51:31.714Z,9.13
2018-12-18T13:54:08.846Z,9.07
2018-12-18T13:56:44.929Z,9.00
2018-12-18T13:59:21.123Z,8.96
2018-12-18T14:01:55.081Z,8.87
2018-12-18T14:04:28.018Z,8.81
2018-12-18T14:07:01.138Z,8.84
2018-12-18T14:09:34.052Z,8.81
2018-12-18T14:12:06.823Z,8.76
2018-12-18T14:14:39.873Z,8.60
2018-12-18T14:17:10.886Z,8.49
2018-12-18T14:19:47.925Z,8.39
2018-12-18T14:22:20.861Z,8.21
2018-12-18T14:24:57.741Z,8.02
2018-12-18T14:27:26.852Z,7.90
2018-12-18T14:30:03.109Z,7.81
2018-12-18T14:32:35.635Z,7.66
2018-12-18T14:35:12.474Z,7.52
2018-12-18T14:37:45.838Z,7.36
2018-12-18T14:40:18.384Z,7.26
2018-12-18T14:42:55.174Z,7.15
2018-12-18T14:45:32.161Z,6.98
2018-12-18T14:48:04.994Z,6.82
2018-12-18T14:50:41.681Z,6.65
2018-12-18T14:53:12.415Z,6.53
2018-12-18T14:55:46.533Z,6.43
2018-12-18T14:58:19.215Z,6.33
2018-12-18T15:00:50.225Z,6.24
2018-12-18T15:03:27.314Z,6.15
2018-12-18T15:06:04.861Z,6.03
2018-12-18T15:08:35.909Z,5.91
2018-12-18T15:11:09.001Z,5.75
2018-12-18T15:13:46.066Z,5.64
2018-12-18T15:16:21.985Z,5.52
2018-12-18T15:18:59.885Z,5.44
2018-12-18T15:21:36.705Z,5.37
2018-12-18T15:24:14.442Z,5.29
2018-12-18T15:26:47.404Z,5.23
2018-12-18T15:29:20.529Z,5.19
2018-12-18T15:31:51.257Z,5.21
2018-12-18T15:34:24.353Z,5.21
2018-12-18T15:36:57.449Z,5.13
2018-12-18T15:39:31.528Z,5.06
2018-12-18T15:42:04.616Z,4.97
2018-12-18T15:44:37.672Z,4.90
2018-12-18T15:47:17.238Z,4.86
2018-12-18T15:49:50.716Z,4.74
2018-12-18T15:52:23.458Z,4.70
2018-12-18T15:54:56.748Z,4.63
2018-12-18T15:57:30.662Z,4.54
2018-12-18T16:00:03.684Z,4.46
2018-12-18T16:02:36.689Z,4.41
2018-12-18T16:05:09.626Z,4.36
2018-12-18T16:07:44.297Z,4.29
2018-12-18T16:10:17.326Z,4.21
2018-12-18T16:12:50.317Z,4.14
2018-12-18T16:15:23.428Z,4.06
2018-12-18T16:17:57.924Z,4.00
2018-12-18T16:20:34.593Z,3.93
2018-12-18T16:23:07.692Z,3.84
2018-12-18T16:25:40.501Z,3.75
2018-12-18T16:28:13.541Z,3.73
2018-12-18T16:30:46.521Z,3.69
2018-12-18T16:33:19.674Z,3.70
2018-12-18T16:35:53.345Z,3.72
2018-12-18T16:38:26.002Z,3.71
2018-12-18T16:41:04.124Z,3.74
2018-12-18T16:43:37.029Z,3.77
2018-12-18T16:46:10.725Z,3.80
2018-12-18T16:48:44.212Z,3.75
2018-12-18T16:51:17.677Z,3.71
2018-12-18T16:53:50.989Z,3.68
2018-12-18T16:56:25.061Z,3.66
2018-12-18T16:58:58.280Z,3.64
2018-12-18T17:01:30.973Z,3.60
2018-12-18T17:04:03.818Z,3.55
2018-12-18T17:06:36.793Z,3.49
2018-12-18T17:09:09.685Z,3.43
2018-12-18T17:11:42.641Z,3.40
2018-12-18T17:14:20.117Z,3.38
2018-12-18T17:16:52.997Z,3.38
2018-12-18T17:19:26.138Z,3.43
2018-12-18T17:21:59.093Z,3.47
2018-12-18T17:24:32.291Z,3.47
2018-12-18T17:27:05.705Z,3.47
2018-12-18T17:29:38.401Z,3.46
2018-12-18T17:32:11.361Z,3.42
2018-12-18T17:34:44.301Z,3.42
2018-12-18T17:37:19.093Z,3.40
2018-12-18T17:39:52.061Z,3.42
2018-12-18T17:42:24.894Z,3.41
2018-12-18T17:44:58.038Z,3.39
2018-12-18T17:47:32.296Z,3.39
2018-12-18T17:50:06.165Z,3.38
2018-12-18T17:52:39.016Z,3.36
2018-12-18T17:55:12.030Z,3.34
2018-12-18T17:57:44.882Z,3.32
2018-12-18T18:00:18.249Z,3.29
2018-12-18T18:02:51.208Z,3.26
2018-12-18T18:05:24.331Z,3.27
2018-12-18T18:07:57.477Z,3.21
2018-12-18T18:10:30.314Z,3.16
2018-12-18T18:13:03.333Z,3.12
2018-12-18T18:15:36.392Z,3.07
2018-12-18T18:18:09.390Z,3.00
2018-12-18T18:20:46.422Z,2.96
2018-12-18T18:23:20.001Z,2.94
2018-12-18T18:25:53.797Z,2.89
2018-12-18T18:28:27.310Z,2.85
2018-12-18T18:31:00.324Z,2.82
2018-12-18T18:33:33.283Z,2.78
2018-12-18T18:36:06.085Z,2.70
2018-12-18T18:38:39.058Z,2.64
2018-12-18T18:41:12.445Z,2.61
2018-12-18T18:43:50.297Z,2.58
2018-12-18T18:46:23.465Z,2.52
2018-12-18T18:48:56.552Z,2.46
2018-12-18T18:51:29.296Z,2.42
2018-12-18T18:54:02.261Z,2.45
2018-12-18T18:56:34.969Z,2.46
2018-12-18T18:59:07.713Z,2.40
2018-12-18T19:01:44.559Z,2.34
2018-12-18T19:04:14.437Z,2.29
2018-12-18T19:06:44.857Z,2.25
2018-12-18T19:09:25.504Z,2.20
2018-12-18T19:15:15.579Z,2.12
2018-12-18T19:17:45.075Z,2.12
2018-12-18T19:20:14.554Z,2.10
2018-12-18T19:22:44.175Z,2.15
2018-12-18T19:25:13.698Z,2.19
2018-12-18T19:27:43.176Z,2.19
2018-12-18T19:30:13.269Z,2.19
2018-12-18T19:32:42.770Z,2.19
2018-12-18T19:35:12.282Z,2.20
2018-12-18T19:37:42.094Z,2.23
2018-12-18T19:40:14.903Z,2.29
2018-12-18T19:43:08.653Z,2.33
2018-12-18T19:45:56.338Z,2.34
2018-12-18T19:48:29.414Z,2.39
2018-12-18T19:51:39.737Z,2.46
2018-12-18T19:54:37.541Z,2.50
2018-12-18T19:57:31.966Z,2.56
2018-12-18T20:00:01.548Z,2.61
2018-12-18T20:02:31.146Z,2.71
2018-12-18T20:05:43.055Z,2.81
2018-12-18T20:08:13.622Z,2.89
2018-12-18T20:11:19.574Z,2.95
2018-12-18T20:13:56.893Z,3.01
2018-12-18T20:16:26.482Z,3.04
2018-12-18T20:18:56.092Z,3.07
2018-12-18T20:21:25.629Z,3.12
2018-12-18T20:24:02.597Z,3.14
2018-12-18T20:26:33.021Z,3.18
2018-12-18T20:29:18.945Z,3.25
2018-12-18T20:31:58.781Z,3.27
2018-12-18T20:34:28.486Z,3.27
2018-12-18T20:37:10.757Z,3.30
2018-12-18T20:39:47.697Z,3.30
2018-12-18T20:42:18.241Z,3.30
2018-12-18T20:45:13.405Z,3.31
2018-12-18T20:48:21.581Z,3.31
2018-12-18T20:51:17.945Z,3.33
2018-12-18T20:53:54.802Z,3.32
2018-12-18T20:56:50.489Z,3.34
2018-12-18T20:59:27.929Z,3.31
2018-12-18T21:02:22.749Z,3.29
2018-12-18T21:05:14.841Z,3.24
2018-12-18T21:08:23.389Z,3.15
2018-12-18T21:11:39.281Z,3.11
2018-12-18T21:14:09.017Z,3.01
2018-12-18T21:16:46.674Z,2.96
2018-12-18T21:22:37.729Z,2.88
2018-12-18T21:25:08.320Z,2.89
2018-12-18T21:27:45.285Z,2.88
2018-12-18T21:30:22.768Z,2.87
2018-12-18T21:32:59.528Z,2.85
2018-12-18T21:35:31.093Z,2.84
2018-12-18T21:38:00.757Z,2.83
2018-12-18T21:40:30.314Z,2.80
2018-12-18T21:42:59.909Z,2.77
2018-12-18T21:45:29.404Z,2.74
2018-12-18T21:47:59.017Z,2.69
2018-12-18T21:50:28.594Z,2.67
2018-12-18T21:52:58.122Z,2.63
2018-12-18T21:55:27.731Z,2.62
2018-12-18T21:57:57.281Z,2.63
2018-12-18T22:00:26.815Z,2.65
2018-12-18T22:03:35.300Z,2.67
2018-12-18T22:06:32.166Z,2.73
2018-12-18T22:09:40.611Z,2.79
2018-12-18T22:12:14.022Z,2.80
2018-12-18T22:14:43.284Z,2.81
2018-12-18T22:17:12.544Z,2.87
2018-12-18T22:20:03.100Z,2.89
2018-12-18T22:22:32.605Z,2.90
2018-12-18T22:25:27.450Z,2.90
2018-12-18T22:27:56.801Z,2.88
2018-12-18T22:33:49.909Z,2.96
2018-12-18T22:36:19.435Z,3.02
2018-12-18T22:38:48.624Z,3.06
2018-12-18T22:41:17.669Z,3.09
2018-12-18T22:43:46.736Z,3.12
2018-12-18T22:46:15.842Z,3.15
2018-12-18T22:49:11.217Z,3.17
2018-12-18T22:51:42.115Z,3.25
2018-12-18T22:54:18.961Z,3.31
2018-12-18T22:56:47.893Z,3.39
2018-12-18T22:59:16.993Z,3.46
2018-12-18T23:02:07.389Z,3.52
2018-12-18T23:04:37.556Z,3.57
2018-12-18T23:07:06.565Z,3.58
2018-12-18T23:12:57.117Z,3.44
2018-12-18T23:15:26.248Z,3.37
2018-12-18T23:17:55.369Z,3.31
2018-12-18T23:20:45.181Z,3.26
2018-12-18T23:23:14.300Z,3.25
2018-12-18T23:25:58.465Z,3.32
2018-12-18T23:28:38.002Z,3.39
2018-12-18T23:31:07.098Z,3.45
2018-12-18T23:33:36.181Z,3.57
2018-12-18T23:36:18.362Z,3.63
2018-12-18T23:38:47.425Z,3.67
2018-12-18T23:41:16.533Z,3.72
2018-12-18T23:44:00.209Z,3.77
2018-12-18T23:49:53.057Z,3.82
2018-12-18T23:52:22.363Z,3.86
2018-12-18T23:54:51.301Z,3.91
2018-12-18T23:57:20.277Z,3.90
2018-12-18T23:59:49.249Z,3.95
